Time;durP1;ratioP1;P1;durP2;ratioP2;P2;SDS_P1;SDS_P2;PMS_P1;PMS_P2;Temp;Humidity;BMP_temperature;BMP_pressure;BME280_temperature;BME280_humidity;BME280_pressure;Samples;Min_cycle;Max_cycle;Signal;HPM_P1;HPM_P2
2021/10/29 00:02:20;;;;;;;23.70;5.20;;;;;;;;;;5108106;28;20022;-68
2021/10/29 00:04:46;;;;;;;16.98;6.45;;;;;;;;;;5104642;28;20024;-68
2021/10/29 00:07:12;;;;;;;12.05;5.47;;;;;;;;;;5105839;28;20024;-67
2021/10/29 00:09:38;;;;;;;14.57;5.53;;;;;;;;;;5107007;28;20027;-68
2021/10/29 00:12:06;;;;;;;18.70;5.30;;;;;;;;;;5104451;28;20020;-68
2021/10/29 00:14:34;;;;;;;12.45;5.10;;;;;;;;;;5104658;28;20026;-67
2021/10/29 00:17:01;;;;;;;13.20;5.72;;;;;;;;;;5106853;28;20102;-68
2021/10/29 00:19:27;;;;;;;10.50;5.53;;;;;;;;;;5107572;28;20032;-68
2021/10/29 00:21:54;;;;;;;12.02;6.10;;;;;;;;;;5104844;28;20026;-67
2021/10/29 00:24:21;;;;;;;18.25;5.20;;;;;;;;;;5107144;28;20031;-68
2021/10/29 00:26:47;;;;;;;25.10;5.60;;;;;;;;;;5106987;28;20031;-68
2021/10/29 00:29:13;;;;;;;16.65;5.32;;;;;;;;;;5105208;28;20040;-67
2021/10/29 00:31:39;;;;;;;16.17;4.60;;;;;;;;;;5102846;28;20016;-68
2021/10/29 00:34:05;;;;;;;15.40;4.85;;;;;;;;;;5105289;28;20028;-68
2021/10/29 00:36:31;;;;;;;30.15;5.43;;;;;;;;;;5101248;28;20070;-68
2021/10/29 00:38:57;;;;;;;23.08;5.25;;;;;;;;;;5106005;28;20031;-68
2021/10/29 00:41:23;;;;;;;20.33;5.25;;;;;;;;;;5103040;28;20024;-67
2021/10/29 00:43:49;;;;;;;16.45;4.82;;;;;;;;;;5105458;28;20016;-68
2021/10/29 00:46:15;;;;;;;21.95;5.05;;;;;;;;;;5105432;28;20462;-67
2021/10/29 00:48:45;;;;;;;8.60;3.97;;;;;;;;;;5105601;28;20468;-68
2021/10/29 00:51:12;;;;;;;13.68;5.18;;;;;;;;;;5103994;28;20016;-68
2021/10/29 00:53:38;;;;;;;13.38;4.57;;;;;;;;;;5102157;28;20024;-68
2021/10/29 00:56:06;;;;;;;14.43;4.82;;;;;;;;;;5104730;28;20023;-68
2021/10/29 00:58:32;;;;;;;10.30;5.10;;;;;;;;;;5103359;28;20040;-67
2021/10/29 01:00:58;;;;;;;13.57;4.18;;;;;;;;;;5102771;28;20027;-68
2021/10/29 01:03:24;;;;;;;8.02;4.20;;;;;;;;;;5101274;28;20034;-68
2021/10/29 01:05:50;;;;;;;12.00;4.68;;;;;;;;;;5102777;28;20020;-68
2021/10/29 01:08:16;;;;;;;11.57;4.45;;;;;;;;;;5103836;28;20377;-68
2021/10/29 01:10:42;;;;;;;9.85;4.28;;;;;;;;;;5104460;28;20020;-68
2021/10/29 01:13:09;;;;;;;13.07;4.30;;;;;;;;;;5103861;28;20027;-66
2021/10/29 01:15:38;;;;;;;8.27;4.20;;;;;;;;;;5104842;28;20101;-66
2021/10/29 01:18:04;;;;;;;16.60;4.25;;;;;;;;;;5100612;28;20028;-66
2021/10/29 01:20:30;;;;;;;13.13;3.72;;;;;;;;;;5104448;28;20340;-66
2021/10/29 01:22:56;;;;;;;12.07;4.15;;;;;;;;;;5101890;28;20454;-66
2021/10/29 01:25:22;;;;;;;12.02;4.03;;;;;;;;;;5105987;28;20016;-66
2021/10/29 01:27:49;;;;;;;8.82;4.03;;;;;;;;;;5100631;28;20032;-65
2021/10/29 01:30:15;;;;;;;9.82;3.85;;;;;;;;;;5105092;28;20379;-66
2021/10/29 01:32:41;;;;;;;7.53;4.00;;;;;;;;;;5103610;28;20019;-66
2021/10/29 01:35:08;;;;;;;7.32;3.90;;;;;;;;;;5101767;28;20016;-66
2021/10/29 01:37:38;;;;;;;10.98;4.47;;;;;;;;;;5101733;28;20071;-66
2021/10/29 01:40:08;;;;;;;9.88;4.50;;;;;;;;;;5103908;28;20059;-66
2021/10/29 01:42:34;;;;;;;6.60;4.07;;;;;;;;;;5102042;28;20020;-66
2021/10/29 01:45:01;;;;;;;15.90;3.92;;;;;;;;;;5103367;28;20024;-66
2021/10/29 01:47:27;;;;;;;9.27;3.80;;;;;;;;;;5105432;28;20033;-65
2021/10/29 01:49:53;;;;;;;11.05;3.72;;;;;;;;;;5102740;28;20031;-66
2021/10/29 01:52:20;;;;;;;9.35;3.65;;;;;;;;;;5104265;28;20382;-65
2021/10/29 01:54:46;;;;;;;8.98;3.63;;;;;;;;;;5103415;28;20031;-66
2021/10/29 01:57:13;;;;;;;10.35;3.85;;;;;;;;;;5101685;28;20035;-66
2021/10/29 01:59:39;;;;;;;11.40;3.67;;;;;;;;;;5104806;28;20032;-67
2021/10/29 02:02:06;;;;;;;7.95;3.72;;;;;;;;;;5105050;28;20414;-67
2021/10/29 02:04:32;;;;;;;9.95;3.65;;;;;;;;;;5105926;28;20044;-67
2021/10/29 02:06:58;;;;;;;6.43;3.50;;;;;;;;;;5107656;28;20034;-67
2021/10/29 02:09:24;;;;;;;7.40;3.55;;;;;;;;;;5106097;28;20461;-67
2021/10/29 02:11:50;;;;;;;9.43;3.40;;;;;;;;;;5111832;28;20016;-67
2021/10/29 02:14:16;;;;;;;8.63;3.30;;;;;;;;;;5110857;28;20020;-67
2021/10/29 02:16:43;;;;;;;6.97;3.40;;;;;;;;;;5106401;28;20356;-66
2021/10/29 02:19:09;;;;;;;7.05;3.20;;;;;;;;;;5106394;28;20059;-66
2021/10/29 02:21:36;;;;;;;5.97;3.42;;;;;;;;;;5107947;28;20016;-66
2021/10/29 02:24:02;;;;;;;5.25;3.25;;;;;;;;;;5106283;28;20031;-66
2021/10/29 02:26:28;;;;;;;4.95;3.17;;;;;;;;;;5089513;28;20016;-66
2021/10/29 02:28:54;;;;;;;8.85;3.53;;;;;;;;;;5101983;28;20044;-67
2021/10/29 02:31:20;;;;;;;4.25;3.05;;;;;;;;;;5110684;28;20024;-66
2021/10/29 02:33:46;;;;;;;6.32;3.42;;;;;;;;;;5104925;28;20016;-66
2021/10/29 02:36:12;;;;;;;3.67;2.92;;;;;;;;;;5107274;28;20351;-66
2021/10/29 02:38:38;;;;;;;6.07;3.30;;;;;;;;;;5104655;28;20022;-66
2021/10/29 02:41:05;;;;;;;7.45;3.50;;;;;;;;;;5102999;28;20097;-65
2021/10/29 02:43:31;;;;;;;10.35;3.65;;;;;;;;;;5106086;28;20095;-66
2021/10/29 02:45:57;;;;;;;12.60;3.28;;;;;;;;;;5104515;28;20024;-66
2021/10/29 02:48:23;;;;;;;8.43;3.13;;;;;;;;;;5107000;28;20016;-66
2021/10/29 02:50:50;;;;;;;5.03;2.95;;;;;;;;;;5088260;28;20028;-66
2021/10/29 02:53:17;;;;;;;4.35;3.00;;;;;;;;;;5105073;28;20017;-66
2021/10/29 02:55:43;;;;;;;4.20;2.70;;;;;;;;;;5103322;28;20030;-66
2021/10/29 02:58:10;;;;;;;9.52;3.03;;;;;;;;;;5109145;28;20070;-66
2021/10/29 03:00:36;;;;;;;8.25;2.80;;;;;;;;;;5105513;28;20486;-66
2021/10/29 03:03:02;;;;;;;11.25;3.10;;;;;;;;;;5107910;28;20026;-65
2021/10/29 03:05:29;;;;;;;7.05;3.08;;;;;;;;;;5107874;28;20024;-66
2021/10/29 03:07:55;;;;;;;8.60;3.50;;;;;;;;;;5106740;28;20505;-65
2021/10/29 03:10:21;;;;;;;5.07;3.10;;;;;;;;;;5104671;28;20016;-66
2021/10/29 03:12:48;;;;;;;7.00;3.28;;;;;;;;;;5104742;28;20019;-66
2021/10/29 03:15:14;;;;;;;7.30;3.22;;;;;;;;;;5104021;28;20027;-66
2021/10/29 03:17:40;;;;;;;8.02;2.90;;;;;;;;;;5100976;28;20086;-66
2021/10/29 03:20:08;;;;;;;5.38;2.80;;;;;;;;;;5102967;28;20036;-67
2021/10/29 03:22:34;;;;;;;5.93;2.80;;;;;;;;;;5104327;28;20028;-67
2021/10/29 03:25:00;;;;;;;6.80;2.95;;;;;;;;;;5106757;28;20024;-66
2021/10/29 03:27:26;;;;;;;10.32;2.97;;;;;;;;;;5105848;28;20041;-67
2021/10/29 03:29:52;;;;;;;6.90;3.20;;;;;;;;;;5108060;28;20077;-66
2021/10/29 03:32:21;;;;;;;10.35;3.00;;;;;;;;;;5104029;28;20022;-66
2021/10/29 03:34:47;;;;;;;8.38;3.13;;;;;;;;;;5104067;28;20024;-67
2021/10/29 03:37:30;;;;;;;7.63;2.85;;;;;;;;;;5103285;28;20016;-67
2021/10/29 03:40:11;;;;;;;8.23;2.65;;;;;;;;;;5106420;28;20043;-67
2021/10/29 03:42:45;;;;;;;8.70;3.00;;;;;;;;;;5103509;28;20047;-67
2021/10/29 03:45:14;;;;;;;6.18;2.60;;;;;;;;;;5101139;28;20351;-67
2021/10/29 03:47:50;;;;;;;6.80;2.88;;;;;;;;;;5103860;28;20065;-66
2021/10/29 03:52:56;;;;;;;4.97;2.50;;;;;;;;;;5104990;28;20051;-67
2021/10/29 03:55:35;;;;;;;5.78;3.00;;;;;;;;;;5103632;28;20023;-67
2021/10/29 03:58:01;;;;;;;5.47;2.88;;;;;;;;;;5107978;28;20016;-67
2021/10/29 04:00:30;;;;;;;9.98;2.97;;;;;;;;;;5103935;28;20051;-67
2021/10/29 04:03:01;;;;;;;5.28;2.88;;;;;;;;;;5102248;28;20027;-66
2021/10/29 04:05:27;;;;;;;5.40;2.90;;;;;;;;;;5086202;28;20024;-67
2021/10/29 04:07:53;;;;;;;3.95;2.58;;;;;;;;;;5104597;28;20153;-67
2021/10/29 04:10:23;;;;;;;6.35;2.55;;;;;;;;;;5105664;28;20024;-67
2021/10/29 04:12:50;;;;;;;4.53;3.08;;;;;;;;;;5105448;28;20027;-66
2021/10/29 04:15:16;;;;;;;6.40;2.92;;;;;;;;;;5105435;28;20020;-67
2021/10/29 04:17:42;;;;;;;4.43;2.88;;;;;;;;;;5104590;28;20016;-66
2021/10/29 04:20:09;;;;;;;3.28;2.40;;;;;;;;;;5103117;28;20074;-67
2021/10/29 04:22:38;;;;;;;7.57;2.42;;;;;;;;;;5104106;28;20114;-66
2021/10/29 04:25:04;;;;;;;3.58;2.45;;;;;;;;;;5109516;28;20164;-66
2021/10/29 04:27:33;;;;;;;6.82;2.75;;;;;;;;;;5108993;28;20439;-67
2021/10/29 04:30:00;;;;;;;3.95;2.75;;;;;;;;;;5104653;28;20058;-67
2021/10/29 04:32:26;;;;;;;8.30;2.55;;;;;;;;;;5108954;28;20028;-67
2021/10/29 04:34:52;;;;;;;11.15;2.65;;;;;;;;;;5103898;28;20032;-67
2021/10/29 04:37:19;;;;;;;5.95;2.55;;;;;;;;;;5102256;28;20375;-67
2021/10/29 04:39:46;;;;;;;7.30;2.38;;;;;;;;;;5107722;28;20641;-67
2021/10/29 04:42:12;;;;;;;5.32;2.70;;;;;;;;;;5106005;28;20039;-67
2021/10/29 04:44:38;;;;;;;4.05;2.50;;;;;;;;;;5087559;28;20019;-67
2021/10/29 04:47:04;;;;;;;4.53;2.55;;;;;;;;;;5106329;28;20016;-66
2021/10/29 04:49:31;;;;;;;3.63;2.53;;;;;;;;;;5102984;28;20028;-68
2021/10/29 04:51:58;;;;;;;3.08;2.40;;;;;;;;;;5082127;28;20030;-67
2021/10/29 04:54:25;;;;;;;3.58;2.38;;;;;;;;;;5104801;28;20039;-68
2021/10/29 04:56:52;;;;;;;3.08;2.20;;;;;;;;;;5102998;28;20016;-68
2021/10/29 04:59:18;;;;;;;3.97;2.80;;;;;;;;;;5102317;28;20035;-66
2021/10/29 05:01:46;;;;;;;7.97;3.00;;;;;;;;;;5087282;28;20016;-67
2021/10/29 05:04:14;;;;;;;3.75;2.50;;;;;;;;;;5106227;28;20020;-67
2021/10/29 05:06:40;;;;;;;8.90;2.92;;;;;;;;;;5100857;28;20439;-66
2021/10/29 05:09:06;;;;;;;4.10;2.33;;;;;;;;;;5106052;28;20042;-66
2021/10/29 05:11:32;;;;;;;6.93;3.10;;;;;;;;;;5101532;28;21483;-67
2021/10/29 05:13:58;;;;;;;5.47;2.50;;;;;;;;;;5103242;28;20046;-66
2021/10/29 05:16:24;;;;;;;6.03;2.30;;;;;;;;;;5104380;28;20055;-66
2021/10/29 05:18:50;;;;;;;4.00;2.40;;;;;;;;;;5104643;28;20032;-66
2021/10/29 05:21:16;;;;;;;3.88;2.25;;;;;;;;;;5101264;28;20103;-66
2021/10/29 05:23:42;;;;;;;3.30;2.63;;;;;;;;;;5108832;28;20077;-66
2021/10/29 05:26:08;;;;;;;3.25;2.20;;;;;;;;;;5103921;28;20016;-66
2021/10/29 05:28:35;;;;;;;4.75;2.42;;;;;;;;;;5102003;28;20517;-66
2021/10/29 05:31:01;;;;;;;6.38;2.78;;;;;;;;;;5103872;28;20024;-65
2021/10/29 05:33:27;;;;;;;14.93;2.67;;;;;;;;;;5104004;28;20103;-66
2021/10/29 05:35:54;;;;;;;15.18;2.55;;;;;;;;;;5104977;28;20028;-66
2021/10/29 05:38:21;;;;;;;5.15;2.63;;;;;;;;;;5104739;28;20098;-65
2021/10/29 05:40:48;;;;;;;15.52;2.90;;;;;;;;;;5105623;28;20027;-65
2021/10/29 05:43:14;;;;;;;11.50;2.85;;;;;;;;;;5105914;28;20490;-66
2021/10/29 05:45:40;;;;;;;10.10;2.72;;;;;;;;;;5103505;28;20031;-66
2021/10/29 05:48:12;;;;;;;9.68;2.85;;;;;;;;;;5106720;28;20031;-66
2021/10/29 05:50:47;;;;;;;7.70;2.30;;;;;;;;;;5103362;28;20019;-66
2021/10/29 05:53:19;;;;;;;16.73;2.42;;;;;;;;;;5084574;28;20024;-66
2021/10/29 05:55:46;;;;;;;19.75;2.47;;;;;;;;;;5103238;28;20012;-66
2021/10/29 05:58:12;;;;;;;12.60;2.83;;;;;;;;;;5101187;28;20043;-65
2021/10/29 06:00:38;;;;;;;14.18;3.33;;;;;;;;;;5106982;28;20067;-65
2021/10/29 06:03:05;;;;;;;22.25;2.92;;;;;;;;;;5104752;28;20016;-64
2021/10/29 06:05:32;;;;;;;11.43;3.05;;;;;;;;;;5104239;28;20106;-63
2021/10/29 06:08:01;;;;;;;39.45;3.95;;;;;;;;;;5105616;28;20024;-66
2021/10/29 06:10:28;;;;;;;36.38;3.50;;;;;;;;;;5106223;28;20068;-63
2021/10/29 06:12:54;;;;;;;20.98;3.40;;;;;;;;;;5101763;28;20107;-63
2021/10/29 06:15:20;;;;;;;29.90;3.50;;;;;;;;;;5098947;28;20031;-64
2021/10/29 06:17:46;;;;;;;41.83;3.75;;;;;;;;;;5093672;28;20069;-64
2021/10/29 06:20:13;;;;;;;35.95;3.90;;;;;;;;;;5098655;28;20043;-65
2021/10/29 06:22:44;;;;;;;25.40;3.20;;;;;;;;;;5112801;28;20020;-64
2021/10/29 06:25:46;;;;;;;13.50;2.95;;;;;;;;;;5113869;28;20035;-64
2021/10/29 06:30:45;;;;;;;14.55;3.28;;;;;;;;;;5113749;28;20066;-62
2021/10/29 06:33:12;;;;;;;18.33;3.13;;;;;;;;;;5107788;28;20024;-65
2021/10/29 06:35:42;;;;;;;21.10;3.70;;;;;;;;;;5101833;28;20127;-63
2021/10/29 06:38:11;;;;;;;13.77;3.35;;;;;;;;;;5111805;28;20034;-65
2021/10/29 06:40:46;;;;;;;15.00;3.00;;;;;;;;;;5110322;28;20053;-66
2021/10/29 06:43:21;;;;;;;12.45;2.97;;;;;;;;;;5113861;28;20027;-68
2021/10/29 06:48:53;;;;;;;5.20;2.78;;;;;;;;;;5094846;28;20031;-64
2021/10/29 06:59:32;;;;;;;11.73;2.80;;;;;;;;;;5096672;28;20035;-67
2021/10/29 07:04:43;;;;;;;8.60;3.17;;;;;;;;;;5096960;28;20493;-67
2021/10/29 07:13:15;;;;;;;6.20;2.90;;;;;;;;;;5107617;28;20462;-69
2021/10/29 07:40:08;;;;;;;4.88;2.78;;;;;;;;;;5112181;28;20089;-68
2021/10/29 07:42:40;;;;;;;5.38;3.40;;;;;;;;;;5110642;28;20020;-68
2021/10/29 07:45:07;;;;;;;8.00;3.10;;;;;;;;;;5100732;28;20050;-68
2021/10/29 07:47:34;;;;;;;7.78;3.10;;;;;;;;;;5102199;28;20070;-69
2021/10/29 07:50:01;;;;;;;8.75;3.28;;;;;;;;;;5102707;28;20046;-69
2021/10/29 07:52:27;;;;;;;3.92;3.00;;;;;;;;;;5109360;28;20044;-68
2021/10/29 07:54:53;;;;;;;6.47;3.22;;;;;;;;;;5100874;28;20088;-68
2021/10/29 07:57:19;;;;;;;7.43;3.00;;;;;;;;;;5102406;28;20024;-67
2021/10/29 07:59:50;;;;;;;7.60;3.30;;;;;;;;;;5106264;28;20036;-68
2021/10/29 08:02:16;;;;;;;6.63;3.13;;;;;;;;;;5103507;28;20016;-69
2021/10/29 08:04:42;;;;;;;5.15;3.10;;;;;;;;;;5105129;28;20019;-67
2021/10/29 08:07:09;;;;;;;8.00;3.17;;;;;;;;;;5109669;28;20024;-68
2021/10/29 08:09:35;;;;;;;5.25;3.15;;;;;;;;;;5108822;28;20023;-66
2021/10/29 08:12:01;;;;;;;3.03;2.53;;;;;;;;;;5101500;28;20042;-67
2021/10/29 08:14:27;;;;;;;3.95;2.80;;;;;;;;;;5101431;28;20023;-68
2021/10/29 08:16:53;;;;;;;4.15;3.13;;;;;;;;;;5103487;28;20020;-68
2021/10/29 08:19:30;;;;;;;4.15;2.70;;;;;;;;;;5109217;28;20104;-67
2021/10/29 08:21:56;;;;;;;5.97;3.15;;;;;;;;;;5100231;28;20399;-67
2021/10/29 08:24:22;;;;;;;4.68;2.90;;;;;;;;;;5094777;28;20467;-67
2021/10/29 08:26:48;;;;;;;3.17;2.65;;;;;;;;;;5108592;28;20031;-67
2021/10/29 08:29:14;;;;;;;3.72;2.83;;;;;;;;;;5114791;28;20043;-67
2021/10/29 08:31:40;;;;;;;4.25;2.83;;;;;;;;;;5115090;28;20020;-67
2021/10/29 08:34:06;;;;;;;3.03;2.72;;;;;;;;;;5113764;28;20055;-67
2021/10/29 08:36:36;;;;;;;4.60;3.10;;;;;;;;;;5113957;28;20063;-67
2021/10/29 08:39:02;;;;;;;4.85;2.85;;;;;;;;;;5114775;28;20030;-67
2021/10/29 08:41:28;;;;;;;4.28;2.58;;;;;;;;;;5114686;28;20463;-67
2021/10/29 08:43:54;;;;;;;3.53;2.60;;;;;;;;;;5114651;28;20085;-67
2021/10/29 08:46:21;;;;;;;3.20;2.90;;;;;;;;;;5114775;28;20011;-67
2021/10/29 08:48:48;;;;;;;4.47;2.75;;;;;;;;;;5115051;28;20045;-67
2021/10/29 08:51:15;;;;;;;3.63;2.90;;;;;;;;;;5114080;28;20031;-67
2021/10/29 08:53:41;;;;;;;3.38;2.88;;;;;;;;;;5113009;28;20020;-67
2021/10/29 08:56:07;;;;;;;4.35;3.17;;;;;;;;;;5114729;28;20023;-67
2021/10/29 08:58:36;;;;;;;3.03;2.72;;;;;;;;;;5113388;28;20019;-67
2021/10/29 09:01:09;;;;;;;3.40;2.67;;;;;;;;;;5114740;28;20067;-67
2021/10/29 09:03:45;;;;;;;3.40;2.35;;;;;;;;;;5114671;28;20028;-67
2021/10/29 09:09:02;;;;;;;4.68;3.00;;;;;;;;;;5114625;28;20058;-67
2021/10/29 09:11:39;;;;;;;3.15;2.60;;;;;;;;;;5113503;28;20059;-67
2021/10/29 09:31:33;;;;;;;2.97;2.70;;;;;;;;;;5101829;28;20134;-67
2021/10/29 09:34:15;;;;;;;3.47;2.72;;;;;;;;;;5087585;28;20020;-68
2021/10/29 09:36:43;;;;;;;4.22;2.95;;;;;;;;;;5103772;28;20024;-67
2021/10/29 09:39:10;;;;;;;6.50;2.90;;;;;;;;;;5104496;28;20044;-67
2021/10/29 09:41:37;;;;;;;3.97;2.72;;;;;;;;;;5100515;28;20379;-67
2021/10/29 09:44:14;;;;;;;4.57;3.10;;;;;;;;;;5104817;28;20104;-67
2021/10/29 09:46:54;;;;;;;5.30;2.80;;;;;;;;;;5103518;28;20359;-67
2021/10/29 09:49:24;;;;;;;4.32;2.95;;;;;;;;;;5103149;28;20057;-67
2021/10/29 09:54:51;;;;;;;3.83;3.28;;;;;;;;;;5069718;28;20348;-67
2021/10/29 09:57:22;;;;;;;5.35;3.17;;;;;;;;;;5100647;28;20107;-67
2021/10/29 09:59:50;;;;;;;4.78;3.20;;;;;;;;;;5113337;28;20039;-68
2021/10/29 10:02:18;;;;;;;7.88;2.97;;;;;;;;;;5114175;28;20027;-67
2021/10/29 10:04:45;;;;;;;3.53;3.20;;;;;;;;;;5113712;28;20474;-68
2021/10/29 10:07:12;;;;;;;7.75;2.80;;;;;;;;;;5113675;28;20081;-67
2021/10/29 10:09:39;;;;;;;4.47;2.80;;;;;;;;;;5113707;28;20085;-67
2021/10/29 10:12:05;;;;;;;4.97;3.08;;;;;;;;;;5112347;28;20156;-67
2021/10/29 10:14:32;;;;;;;3.80;2.97;;;;;;;;;;5113548;28;20024;-68
2021/10/29 10:16:58;;;;;;;5.72;3.22;;;;;;;;;;5113594;28;20024;-68
2021/10/29 10:19:25;;;;;;;7.10;3.30;;;;;;;;;;5113380;28;20428;-67
2021/10/29 10:21:54;;;;;;;13.20;3.08;;;;;;;;;;5096113;28;20023;-68
2021/10/29 10:24:25;;;;;;;5.13;3.00;;;;;;;;;;5118026;28;20433;-68
2021/10/29 10:43:08;;;;;;;10.75;4.25;;;;;;;;;;5106113;28;20013;-68
2021/10/29 10:45:46;;;;;;;9.18;4.13;;;;;;;;;;5107875;28;20024;-68
2021/10/29 10:48:13;;;;;;;15.70;4.38;;;;;;;;;;5105798;28;20352;-67
2021/10/29 10:50:46;;;;;;;9.52;3.45;;;;;;;;;;5105977;28;20020;-67
2021/10/29 10:53:20;;;;;;;19.13;4.43;;;;;;;;;;5096915;28;20036;-68
2021/10/29 10:56:06;;;;;;;27.73;4.40;;;;;;;;;;5095485;28;20055;-68
2021/10/29 11:09:57;;;;;;;18.95;5.13;;;;;;;;;;5116934;28;20447;-68
2021/10/29 11:12:24;;;;;;;22.83;7.03;;;;;;;;;;5089632;28;20020;-68
2021/10/29 11:15:05;;;;;;;23.83;6.53;;;;;;;;;;5115801;28;20015;-68
2021/10/29 11:17:52;;;;;;;24.83;8.43;;;;;;;;;;5117446;28;20097;-69
2021/10/29 11:20:34;;;;;;;26.23;9.70;;;;;;;;;;5116321;28;20076;-68
2021/10/29 11:23:03;;;;;;;27.93;10.20;;;;;;;;;;5116652;28;20028;-68
2021/10/29 11:25:46;;;;;;;27.08;11.95;;;;;;;;;;5116218;28;20011;-68
2021/10/29 11:28:13;;;;;;;29.55;12.20;;;;;;;;;;5116135;28;20043;-68
2021/10/29 11:30:42;;;;;;;25.33;10.50;;;;;;;;;;5116710;28;20033;-68
2021/10/29 11:33:08;;;;;;;25.38;12.35;;;;;;;;;;5115181;28;20092;-68
2021/10/29 11:35:35;;;;;;;25.98;12.02;;;;;;;;;;5115571;28;20111;-69
2021/10/29 11:38:01;;;;;;;26.88;12.93;;;;;;;;;;5117019;28;20110;-69
2021/10/29 11:40:27;;;;;;;29.30;12.52;;;;;;;;;;5116822;28;20115;-69
2021/10/29 11:42:54;;;;;;;29.85;12.77;;;;;;;;;;5116874;28;20111;-69
2021/10/29 11:45:34;;;;;;;28.55;12.77;;;;;;;;;;5116538;28;20024;-69
2021/10/29 11:48:01;;;;;;;25.73;11.98;;;;;;;;;;5115991;28;20015;-68
2021/10/29 11:50:28;;;;;;;27.85;13.63;;;;;;;;;;5115194;28;20489;-67
2021/10/29 11:52:54;;;;;;;30.27;12.93;;;;;;;;;;5116121;28;20023;-67
2021/10/29 11:55:24;;;;;;;29.27;12.45;;;;;;;;;;5097865;28;20028;-69
2021/10/29 11:57:59;;;;;;;25.42;12.23;;;;;;;;;;5117338;28;20028;-67
2021/10/29 12:00:45;;;;;;;28.38;13.18;;;;;;;;;;5115829;28;20486;-67
2021/10/29 12:08:28;;;;;;;25.58;11.82;;;;;;;;;;5116114;28;20028;-68
2021/10/29 12:11:00;;;;;;;21.35;11.02;;;;;;;;;;5097571;28;20102;-68
2021/10/29 12:13:27;;;;;;;33.10;12.65;;;;;;;;;;5116348;28;20023;-68
2021/10/29 12:15:53;;;;;;;26.33;10.60;;;;;;;;;;5116074;28;20035;-68
2021/10/29 12:18:25;;;;;;;25.38;10.93;;;;;;;;;;5115623;28;20023;-68
2021/10/29 12:20:51;;;;;;;23.67;11.38;;;;;;;;;;5115309;28;20027;-68
2021/10/29 12:23:25;;;;;;;25.38;11.30;;;;;;;;;;5114468;28;20040;-69
2021/10/29 12:28:26;;;;;;;25.17;10.18;;;;;;;;;;5105820;28;20539;-68
2021/10/29 12:31:33;;;;;;;21.17;9.60;;;;;;;;;;5095163;28;20024;-69
2021/10/29 12:34:13;;;;;;;17.90;9.13;;;;;;;;;;5091480;28;20035;-68
2021/10/29 12:37:26;;;;;;;20.25;9.93;;;;;;;;;;5094930;28;20031;-68
2021/10/29 12:58:48;;;;;;;16.60;8.40;;;;;;;;;;5115411;28;20088;-67
2021/10/29 13:03:08;;;;;;;15.02;7.82;;;;;;;;;;5114827;28;20034;-68
2021/10/29 13:05:35;;;;;;;13.80;7.35;;;;;;;;;;5114625;28;20031;-67
2021/10/29 13:08:16;;;;;;;13.63;7.47;;;;;;;;;;5113959;28;20019;-68
2021/10/29 13:10:42;;;;;;;15.60;7.13;;;;;;;;;;5114482;28;20088;-67
2021/10/29 13:13:14;;;;;;;14.98;7.50;;;;;;;;;;5114839;28;20015;-69
2021/10/29 13:15:40;;;;;;;13.02;7.38;;;;;;;;;;5114575;28;20020;-68
2021/10/29 13:18:13;;;;;;;17.63;7.60;;;;;;;;;;5114664;28;20043;-69
2021/10/29 13:21:03;;;;;;;13.55;6.60;;;;;;;;;;5114263;28;20118;-69
2021/10/29 13:28:48;;;;;;;12.32;6.82;;;;;;;;;;5114336;28;20054;-68
2021/10/29 14:24:23;;;;;;;16.77;4.93;;;;;;;;;;5117818;28;20051;-67
2021/10/29 14:28:15;;;;;;;7.63;4.40;;;;;;;;;;5117305;28;20047;-67
2021/10/29 14:30:50;;;;;;;11.70;5.07;;;;;;;;;;5116298;28;20023;-67
2021/10/29 14:33:21;;;;;;;10.57;4.70;;;;;;;;;;5117279;28;20015;-67
2021/10/29 14:35:51;;;;;;;11.07;4.72;;;;;;;;;;5117077;28;20020;-67
2021/10/29 14:38:40;;;;;;;11.25;4.18;;;;;;;;;;5115738;28;20460;-67
2021/10/29 14:41:16;;;;;;;6.18;4.07;;;;;;;;;;5116978;28;20042;-67
2021/10/29 14:43:49;;;;;;;10.75;4.28;;;;;;;;;;5116610;28;20031;-67
2021/10/29 14:46:40;;;;;;;10.27;4.20;;;;;;;;;;5116557;28;20382;-67
2021/10/29 14:49:28;;;;;;;6.13;3.92;;;;;;;;;;5115113;28;20597;-67
2021/10/29 15:06:21;;;;;;;7.75;3.97;;;;;;;;;;5053282;28;20037;-67
2021/10/29 15:14:58;;;;;;;8.70;3.47;;;;;;;;;;5116428;28;20167;-69
2021/10/29 15:46:36;;;;;;;12.15;3.22;;;;;;;;;;5095795;28;20391;-68
2021/10/29 15:49:19;;;;;;;6.68;2.60;;;;;;;;;;5095180;28;20380;-69
2021/10/29 15:52:02;;;;;;;17.00;3.10;;;;;;;;;;5095297;28;20025;-68
2021/10/29 15:54:31;;;;;;;9.13;2.65;;;;;;;;;;5095695;28;20032;-67
2021/10/29 15:57:02;;;;;;;7.15;3.40;;;;;;;;;;5095574;28;20104;-71
2021/10/29 15:59:45;;;;;;;83.20;6.22;;;;;;;;;;5094444;28;20123;-69
2021/10/29 16:02:32;;;;;;;;;;;;;;;;;;5095591;28;20024;-65
2021/10/29 16:18:41;;;;;;;9.32;2.70;;;;;;;;;;5095025;28;20039;-66
2021/10/29 16:21:07;;;;;;;8.27;2.50;;;;;;;;;;5094426;28;20032;-66
2021/10/29 16:23:33;;;;;;;10.38;2.40;;;;;;;;;;5094758;28;20101;-67
2021/10/29 16:26:03;;;;;;;3.92;2.20;;;;;;;;;;5115098;28;20466;-66
2021/10/29 16:28:34;;;;;;;9.27;2.42;;;;;;;;;;5114981;28;20070;-65
2021/10/29 16:31:00;;;;;;;8.45;2.22;;;;;;;;;;5116243;28;20020;-65
2021/10/29 16:33:36;;;;;;;8.52;2.17;;;;;;;;;;5114110;28;20034;-65
2021/10/29 16:36:03;;;;;;;6.30;2.30;;;;;;;;;;5114887;28;20046;-66
2021/10/29 16:38:29;;;;;;;4.10;2.00;;;;;;;;;;5114914;28;20489;-68
2021/10/29 16:40:55;;;;;;;8.70;2.15;;;;;;;;;;5114897;28;20463;-65
2021/10/29 16:43:22;;;;;;;5.10;2.15;;;;;;;;;;5114868;28;20102;-65
2021/10/29 16:45:49;;;;;;;9.55;2.63;;;;;;;;;;5114808;28;20022;-66
2021/10/29 16:48:16;;;;;;;4.38;1.80;;;;;;;;;;5096104;28;20020;-64
2021/10/29 16:50:43;;;;;;;5.32;2.00;;;;;;;;;;5114857;28;20028;-65
2021/10/29 16:53:09;;;;;;;2.85;1.73;;;;;;;;;;5114697;28;20093;-64
2021/10/29 16:55:36;;;;;;;8.10;2.17;;;;;;;;;;5114409;28;20031;-66
2021/10/29 16:58:02;;;;;;;4.05;2.00;;;;;;;;;;5114874;28;20050;-66
2021/10/29 17:00:28;;;;;;;6.53;2.20;;;;;;;;;;5114359;28;20036;-67
2021/10/29 17:02:54;;;;;;;7.95;2.58;;;;;;;;;;5113611;28;20030;-66
2021/10/29 17:05:20;;;;;;;4.55;2.13;;;;;;;;;;5113410;28;20493;-65
2021/10/29 17:07:46;;;;;;;6.75;1.98;;;;;;;;;;5114285;28;20038;-66
2021/10/29 17:10:16;;;;;;;3.55;1.98;;;;;;;;;;5114116;28;20051;-66
2021/10/29 17:12:42;;;;;;;7.25;2.33;;;;;;;;;;5112914;28;20453;-65
2021/10/29 17:15:10;;;;;;;4.28;1.92;;;;;;;;;;5095881;28;20028;-65
2021/10/29 17:17:36;;;;;;;3.38;1.50;;;;;;;;;;5113941;28;20145;-66
2021/10/29 17:20:03;;;;;;;4.07;1.90;;;;;;;;;;5111992;28;20036;-67
2021/10/29 17:22:29;;;;;;;7.05;1.60;;;;;;;;;;5114315;28;20479;-64
2021/10/29 17:24:55;;;;;;;3.72;2.10;;;;;;;;;;5112723;28;20517;-66
2021/10/29 17:27:21;;;;;;;5.78;2.20;;;;;;;;;;5112544;28;20031;-67
2021/10/29 17:29:47;;;;;;;6.85;2.22;;;;;;;;;;5113726;28;20019;-66
2021/10/29 17:32:13;;;;;;;5.35;2.10;;;;;;;;;;5112602;28;20097;-70
2021/10/29 17:34:40;;;;;;;21.15;2.65;;;;;;;;;;5113656;28;20020;-66
2021/10/29 17:37:06;;;;;;;66.13;3.38;;;;;;;;;;5114061;28;20477;-67
2021/10/29 17:39:32;;;;;;;85.70;4.43;;;;;;;;;;5114376;28;20121;-66
2021/10/29 17:42:01;;;;;;;98.32;6.43;;;;;;;;;;5114112;28;20024;-68
2021/10/29 17:44:27;;;;;;;71.53;3.50;;;;;;;;;;5114371;28;20023;-63
2021/10/29 17:46:55;;;;;;;73.35;4.75;;;;;;;;;;5113975;28;20043;-66
2021/10/29 17:49:22;;;;;;;61.35;3.33;;;;;;;;;;5114054;28;20027;-67
2021/10/29 17:51:48;;;;;;;40.95;3.35;;;;;;;;;;5113103;28;20065;-68
2021/10/29 17:54:14;;;;;;;45.95;3.38;;;;;;;;;;5113577;28;20076;-65
2021/10/29 17:56:40;;;;;;;58.08;3.67;;;;;;;;;;5114200;28;20031;-66
2021/10/29 17:59:06;;;;;;;65.22;4.05;;;;;;;;;;5113556;28;20034;-66
2021/10/29 18:01:32;;;;;;;59.80;3.78;;;;;;;;;;5113480;28;20022;-67
2021/10/29 18:03:59;;;;;;;61.92;4.25;;;;;;;;;;5113852;28;20016;-69
2021/10/29 18:06:25;;;;;;;51.80;3.28;;;;;;;;;;5112713;28;20023;-69
2021/10/29 18:09:03;;;;;;;43.28;3.75;;;;;;;;;;5111763;28;20055;-69
2021/10/29 18:11:29;;;;;;;42.08;3.47;;;;;;;;;;5106561;28;20594;-72
2021/10/29 18:13:55;;;;;;;57.97;3.28;;;;;;;;;;5101228;28;20016;-68
2021/10/29 18:16:27;;;;;;;34.15;3.65;;;;;;;;;;5102283;28;20415;-66
2021/10/29 18:18:55;;;;;;;38.03;3.60;;;;;;;;;;5105523;28;20114;-68
2021/10/29 18:21:21;;;;;;;51.67;3.30;;;;;;;;;;5106079;28;20038;-67
2021/10/29 18:23:52;;;;;;;52.03;2.88;;;;;;;;;;5102884;28;20024;-69
2021/10/29 18:26:18;;;;;;;63.70;3.30;;;;;;;;;;5104351;28;20023;-72
2021/10/29 18:28:44;;;;;;;63.70;4.70;;;;;;;;;;5104850;28;20036;-69
2021/10/29 18:31:12;;;;;;;43.05;3.60;;;;;;;;;;5107075;28;20023;-68
2021/10/29 18:33:38;;;;;;;76.10;4.05;;;;;;;;;;5106925;28;20463;-73
2021/10/29 18:36:04;;;;;;;67.90;3.95;;;;;;;;;;5103950;28;20103;-70
2021/10/29 18:38:30;;;;;;;40.53;3.25;;;;;;;;;;5097880;28;20047;-68
2021/10/29 18:40:56;;;;;;;42.65;3.25;;;;;;;;;;5104437;28;20032;-67
2021/10/29 18:43:22;;;;;;;54.00;3.53;;;;;;;;;;5101767;28;20020;-68
2021/10/29 18:45:50;;;;;;;30.75;3.97;;;;;;;;;;5108912;28;20039;-68
2021/10/29 18:48:16;;;;;;;23.83;2.70;;;;;;;;;;5104470;28;20071;-69
2021/10/29 18:50:43;;;;;;;31.27;2.67;;;;;;;;;;5108345;28;20054;-67
2021/10/29 18:53:09;;;;;;;27.15;3.42;;;;;;;;;;5111619;28;20012;-67
2021/10/29 18:55:36;;;;;;;18.55;2.63;;;;;;;;;;5111709;28;20405;-66
2021/10/29 18:58:02;;;;;;;27.88;2.47;;;;;;;;;;5111729;28;20020;-67